Schladming, Austria
Current Conditions -  °F | °C
As of 1:50 PM on Thursday 27 Nov 2014 (Local Time) from LOWS Reporting Station
Broken Clouds Broken Clouds  
Wind Chill: 45°   Ceiling: 22000
Heat Index: 45°   Visibility: 6mi
Dew Point: 39°   Wind: 3mph
Humidity: 81%   Direction: 290°WNW
Pressure: 29.8"   Gusts: NA
Location:  47.4°N, 13.7°E
Report Text: LOWS 271150Z 29003KT 250V340 9999 FEW012 BKN220 07/04 Q1009 NOSIG
Loading
Personal Weather Stations






























Interactive Weather Map New forecast layout! Learn more

10-Day Weather Forecast

Advertisements
Track Severe Weather on mobile